Leoville, Canada
Current Conditions -  °F | °C
As of 11:00 PM on Wednesday 22 Oct 2014 (Local Time) from CYQW Reporting Station
Clear Clear  
Wind Chill: 28°   Ceiling: Unl
Heat Index: 36°   Visibility: 9mi
Dew Point: 32°   Wind: 10mph
Humidity: 87%   Direction: 110°ESE
Pressure: 29.71"   Gusts: NA
Location:  53.63°N, 107.55°W
Report Text: CYQW 230500Z AUTO 11009KT 9SM CLR 02/00 A2971 RMK SLP082
Loading
Personal Weather Stations






























Interactive Weather Map New forecast layout! Learn more

10-Day Weather Forecast

Advertisements
Track Severe Weather on mobile